Weather at Borj El Arab International Airport

Public forecast

Using degrees Celsius for public forecast. Weather courtesy of forecast.io.

Current aviation weather report (METAR) for Borj El Arab International Airport

Report is more than 6 hours old.

2022/11/14 15:00 (retrieved 2 years ago)

HEBA 141500Z 32008KT 9999 SCT020 21/12 Q1018

Aviation forecast (TAF) for Borj El Arab International Airport

Forecast is more than 12 hours old.

2023/02/22 18:54 (retrieved 1 year ago)

TAF HEBA 221700Z 2218/2324 33008KT 9999 SCT020 SCT022 PROB30 TEMPO 2303/2306 VRB03KT 3000 BR NSC